In Rescue
 
Open Full Screen Window  High Contrast Mode
Wind Gusting 00 knots
04
July 23, 2019 12:39 AM EDT
Weather Information
Wind Direction
  290 °
Wind Speed
  04 kt (5 mph)
Wind Gust
  00 kt (0 mph)
Altimeter
30.02 in
Visibility
10 SM
Temperature
12° C
54° F
Dewpoint
10° C
50° F
Humidity
88%
1hr Rain Fall
00.00 in.
24hr Rain Fall
00.00 in.
Sky Condition
Clear
VFR

METAR KISQ 230439Z AUTO 29004KT 10SM CLR 12/10 A3002 RMK AO2 T01200097

FAA Disclaimer: The data displayed is for advisory purposes only and is not to be used for flight planning or operations.